Time;durP1;ratioP1;P1;durP2;ratioP2;P2;SDS_P1;SDS_P2;PMS_P1;PMS_P2;Temp;Humidity;BMP_temperature;BMP_pressure;BME280_temperature;BME280_humidity;BME280_pressure;Samples;Min_cycle;Max_cycle;Signal;HPM_P1;HPM_P2
2022/07/25 00:00:26;;;;;;;9.98;9.10;;;;;;;;;;5009612;28;20243;-75
2022/07/25 00:02:51;;;;;;;9.70;8.77;;;;;;;;;;5008599;28;20183;-75
2022/07/25 00:05:16;;;;;;;9.50;8.65;;;;;;;;;;5012324;28;20187;-75
2022/07/25 00:07:41;;;;;;;9.63;8.82;;;;;;;;;;5010646;28;20225;-75
2022/07/25 00:10:07;;;;;;;9.65;8.85;;;;;;;;;;5011089;28;20250;-75
2022/07/25 00:12:32;;;;;;;10.68;9.68;;;;;;;;;;5010506;28;20259;-76
2022/07/25 00:14:58;;;;;;;10.68;9.68;;;;;;;;;;5010155;28;20183;-75
2022/07/25 00:17:23;;;;;;;9.98;9.18;;;;;;;;;;5009630;28;20211;-75
2022/07/25 00:19:48;;;;;;;10.07;9.23;;;;;;;;;;5010562;28;21406;-75
2022/07/25 00:22:13;;;;;;;9.98;9.18;;;;;;;;;;5009564;28;20184;-75
2022/07/25 00:24:38;;;;;;;10.68;9.68;;;;;;;;;;5014559;28;20271;-76
2022/07/25 00:27:04;;;;;;;10.40;9.38;;;;;;;;;;5008442;28;20270;-74
2022/07/25 00:29:29;;;;;;;8.63;7.78;;;;;;;;;;5009418;28;20622;-75
2022/07/25 00:31:54;;;;;;;9.48;8.65;;;;;;;;;;5010713;28;20179;-75
2022/07/25 00:34:20;;;;;;;10.32;9.25;;;;;;;;;;5003926;28;20226;-76
2022/07/25 00:36:45;;;;;;;9.13;8.33;;;;;;;;;;5009418;28;20234;-75
2022/07/25 00:39:10;;;;;;;8.75;8.05;;;;;;;;;;5010104;28;20187;-74
2022/07/25 00:41:35;;;;;;;9.50;8.60;;;;;;;;;;5007045;28;20183;-75
2022/07/25 00:44:01;;;;;;;9.57;8.68;;;;;;;;;;5012748;28;20217;-75
2022/07/25 00:46:26;;;;;;;9.40;8.60;;;;;;;;;;5010617;28;20179;-75
2022/07/25 00:48:51;;;;;;;8.50;7.80;;;;;;;;;;5012374;28;20183;-76
2022/07/25 00:51:17;;;;;;;8.70;7.68;;;;;;;;;;5012442;28;20171;-75
2022/07/25 00:53:43;;;;;;;8.85;8.15;;;;;;;;;;5008379;28;20194;-75
2022/07/25 00:56:08;;;;;;;8.63;7.93;;;;;;;;;;5010950;28;20301;-75
2022/07/25 00:58:34;;;;;;;8.30;7.50;;;;;;;;;;5008639;28;20349;-75
2022/07/25 01:00:59;;;;;;;8.88;8.13;;;;;;;;;;5008409;28;20255;-74
2022/07/25 01:03:24;;;;;;;9.30;8.32;;;;;;;;;;5012105;28;20511;-75
2022/07/25 01:05:50;;;;;;;8.60;7.72;;;;;;;;;;5004811;28;20200;-75
2022/07/25 01:08:19;;;;;;;8.40;7.60;;;;;;;;;;5022990;28;20194;-75
2022/07/25 01:10:45;;;;;;;8.07;7.30;;;;;;;;;;5007654;28;20239;-75
2022/07/25 01:13:10;;;;;;;9.27;8.38;;;;;;;;;;5006682;28;20183;-75
2022/07/25 01:15:36;;;;;;;9.47;8.67;;;;;;;;;;5011455;28;20188;-75
2022/07/25 01:18:01;;;;;;;8.32;7.60;;;;;;;;;;5010610;28;20179;-75
2022/07/25 01:20:28;;;;;;;8.53;7.83;;;;;;;;;;5011913;28;20175;-75
2022/07/25 01:22:53;;;;;;;8.13;7.43;;;;;;;;;;5011124;28;20182;-75
2022/07/25 01:25:18;;;;;;;8.20;7.47;;;;;;;;;;5003686;28;20194;-75
2022/07/25 01:27:44;;;;;;;8.70;8.00;;;;;;;;;;5014549;28;20538;-75
2022/07/25 01:30:12;;;;;;;8.53;7.80;;;;;;;;;;5012060;28;20188;-75
2022/07/25 01:32:37;;;;;;;8.05;7.35;;;;;;;;;;5013182;28;20191;-75
2022/07/25 01:35:03;;;;;;;9.90;9.00;;;;;;;;;;5021148;28;20188;-75
2022/07/25 01:37:29;;;;;;;8.25;7.45;;;;;;;;;;5017898;28;20234;-75
2022/07/25 01:39:54;;;;;;;8.67;7.90;;;;;;;;;;5005729;28;20214;-74
2022/07/25 01:42:19;;;;;;;8.85;8.05;;;;;;;;;;5011512;28;20197;-75
2022/07/25 01:44:44;;;;;;;8.77;7.93;;;;;;;;;;5012563;28;20185;-76
2022/07/25 01:47:10;;;;;;;8.30;7.50;;;;;;;;;;5010761;28;20182;-75
2022/07/25 01:49:35;;;;;;;9.17;8.47;;;;;;;;;;5010764;28;20254;-75
2022/07/25 01:52:00;;;;;;;8.43;7.73;;;;;;;;;;5012986;28;20179;-75
2022/07/25 01:54:25;;;;;;;8.77;7.87;;;;;;;;;;5013472;28;20195;-75
2022/07/25 01:56:51;;;;;;;8.57;7.75;;;;;;;;;;5019167;28;20203;-75
2022/07/25 01:59:16;;;;;;;8.27;7.57;;;;;;;;;;5010377;28;20179;-75
2022/07/25 02:01:41;;;;;;;9.30;8.50;;;;;;;;;;5012041;28;20257;-75
2022/07/25 02:04:06;;;;;;;8.77;7.97;;;;;;;;;;5013011;28;20232;-75
2022/07/25 02:06:33;;;;;;;8.83;8.13;;;;;;;;;;5011288;28;20264;-75
2022/07/25 02:08:59;;;;;;;9.88;8.88;;;;;;;;;;5019886;28;20331;-75
2022/07/25 02:11:24;;;;;;;8.23;7.57;;;;;;;;;;5016818;28;20230;-75
2022/07/25 02:13:49;;;;;;;9.17;8.10;;;;;;;;;;5005453;28;20186;-75
2022/07/25 02:16:14;;;;;;;8.17;7.40;;;;;;;;;;5014278;28;20253;-75
2022/07/25 02:18:40;;;;;;;8.20;7.50;;;;;;;;;;5011923;28;20266;-74
2022/07/25 02:21:07;;;;;;;8.70;7.90;;;;;;;;;;5013057;28;20191;-75
2022/07/25 02:23:32;;;;;;;9.13;8.23;;;;;;;;;;5013295;28;20317;-76
2022/07/25 02:25:58;;;;;;;8.53;7.73;;;;;;;;;;5008256;28;20277;-74
2022/07/25 02:28:23;;;;;;;8.10;7.40;;;;;;;;;;5011970;28;20190;-75
2022/07/25 02:30:48;;;;;;;8.90;8.00;;;;;;;;;;5010717;28;20184;-75
2022/07/25 02:33:13;;;;;;;9.67;8.53;;;;;;;;;;5010244;28;20191;-74
2022/07/25 02:35:38;;;;;;;9.50;8.60;;;;;;;;;;5010330;28;20190;-74
2022/07/25 02:38:04;;;;;;;8.40;7.60;;;;;;;;;;5015868;28;20179;-75
2022/07/25 02:40:29;;;;;;;8.33;7.67;;;;;;;;;;5014731;28;20281;-75
2022/07/25 02:42:54;;;;;;;9.50;8.60;;;;;;;;;;5007450;28;20187;-75
2022/07/25 02:45:19;;;;;;;7.97;7.27;;;;;;;;;;5010631;28;20186;-75
2022/07/25 02:47:44;;;;;;;8.83;8.03;;;;;;;;;;5009091;28;20189;-74
2022/07/25 02:50:10;;;;;;;8.20;7.50;;;;;;;;;;5012736;28;20197;-76
2022/07/25 02:52:35;;;;;;;7.97;7.10;;;;;;;;;;5012759;28;20197;-75
2022/07/25 02:55:00;;;;;;;7.97;7.27;;;;;;;;;;5008254;28;20190;-76
2022/07/25 02:57:25;;;;;;;8.20;7.50;;;;;;;;;;5015041;28;20206;-75
2022/07/25 02:59:50;;;;;;;9.40;8.07;;;;;;;;;;5010932;28;20182;-74
2022/07/25 03:02:16;;;;;;;8.33;7.53;;;;;;;;;;5011783;28;20187;-75
2022/07/25 03:04:41;;;;;;;8.43;7.53;;;;;;;;;;5008280;28;20202;-75
2022/07/25 03:07:06;;;;;;;8.05;7.40;;;;;;;;;;5010527;28;20229;-76
2022/07/25 03:09:31;;;;;;;9.33;8.47;;;;;;;;;;5013613;28;20234;-75
2022/07/25 03:11:56;;;;;;;8.70;7.90;;;;;;;;;;5007803;28;20243;-74
2022/07/25 03:14:22;;;;;;;8.67;7.80;;;;;;;;;;5013295;28;20198;-75
2022/07/25 03:16:47;;;;;;;8.33;7.53;;;;;;;;;;5017947;28;20225;-75
2022/07/25 03:19:13;;;;;;;8.83;7.93;;;;;;;;;;5010182;28;20177;-75
2022/07/25 03:21:40;;;;;;;8.40;7.60;;;;;;;;;;5010723;28;20208;-75
2022/07/25 03:24:06;;;;;;;8.32;7.53;;;;;;;;;;5012320;28;20182;-76
2022/07/25 03:26:31;;;;;;;8.70;7.93;;;;;;;;;;5013559;28;20186;-75
2022/07/25 03:28:56;;;;;;;8.30;7.50;;;;;;;;;;5010842;28;20179;-75
2022/07/25 03:31:21;;;;;;;7.77;7.03;;;;;;;;;;5020385;28;20233;-75
2022/07/25 03:33:47;;;;;;;8.63;7.77;;;;;;;;;;5010994;28;20186;-74
2022/07/25 03:36:12;;;;;;;8.10;7.40;;;;;;;;;;5006417;28;20213;-75
2022/07/25 03:38:38;;;;;;;8.40;7.60;;;;;;;;;;5007324;28;20220;-76
2022/07/25 03:41:03;;;;;;;8.67;7.80;;;;;;;;;;5010608;28;20171;-76
2022/07/25 03:43:29;;;;;;;8.20;7.47;;;;;;;;;;5011918;28;20173;-75
2022/07/25 03:45:54;;;;;;;8.70;7.93;;;;;;;;;;5012970;28;20196;-75
2022/07/25 03:48:20;;;;;;;7.93;7.10;;;;;;;;;;5015130;28;20187;-76
2022/07/25 03:50:45;;;;;;;8.20;7.50;;;;;;;;;;5010651;28;20670;-76
2022/07/25 03:53:10;;;;;;;7.63;7.03;;;;;;;;;;5009834;28;20254;-76
2022/07/25 03:55:36;;;;;;;7.70;7.03;;;;;;;;;;5003231;28;20253;-74
2022/07/25 03:58:01;;;;;;;8.40;7.57;;;;;;;;;;5010756;28;20189;-75
2022/07/25 04:00:26;;;;;;;7.87;7.17;;;;;;;;;;5015287;28;20178;-75
2022/07/25 04:02:51;;;;;;;7.27;6.67;;;;;;;;;;5014682;28;20188;-76
2022/07/25 04:05:17;;;;;;;8.20;7.40;;;;;;;;;;5010500;28;20194;-75
2022/07/25 04:07:42;;;;;;;7.47;6.77;;;;;;;;;;5003721;28;20178;-76
2022/07/25 04:10:10;;;;;;;9.03;8.17;;;;;;;;;;5007569;28;20252;-75
2022/07/25 04:12:37;;;;;;;8.57;7.87;;;;;;;;;;5010393;28;20221;-75
2022/07/25 04:15:03;;;;;;;8.43;7.50;;;;;;;;;;5014315;28;20195;-75
2022/07/25 04:17:28;;;;;;;7.93;7.23;;;;;;;;;;5005760;28;20211;-75
2022/07/25 04:19:54;;;;;;;8.13;7.33;;;;;;;;;;5009806;28;20189;-74
2022/07/25 04:22:19;;;;;;;9.00;8.30;;;;;;;;;;5008549;28;20187;-75
2022/07/25 04:24:44;;;;;;;8.00;7.33;;;;;;;;;;5006516;28;20178;-75
2022/07/25 04:27:10;;;;;;;8.90;8.17;;;;;;;;;;5005805;28;20186;-75
2022/07/25 04:29:35;;;;;;;8.63;7.87;;;;;;;;;;5008671;28;20195;-75
2022/07/25 04:32:00;;;;;;;8.00;7.27;;;;;;;;;;5017101;28;20178;-76
2022/07/25 04:34:25;;;;;;;8.10;7.40;;;;;;;;;;5010529;28;20270;-75
2022/07/25 04:36:50;;;;;;;9.30;8.33;;;;;;;;;;5009445;28;20194;-75
2022/07/25 04:39:16;;;;;;;8.80;8.10;;;;;;;;;;5011726;28;20186;-75
2022/07/25 04:41:41;;;;;;;8.80;8.10;;;;;;;;;;5007968;28;20177;-75
2022/07/25 04:44:07;;;;;;;9.83;8.83;;;;;;;;;;5003092;28;20281;-76
2022/07/25 04:46:32;;;;;;;9.47;8.67;;;;;;;;;;5008600;28;20182;-75
2022/07/25 04:48:57;;;;;;;9.23;8.33;;;;;;;;;;5009558;28;20182;-75
2022/07/25 04:51:22;;;;;;;9.07;8.23;;;;;;;;;;5012115;28;20187;-75
2022/07/25 04:53:48;;;;;;;9.70;8.90;;;;;;;;;;5005574;28;20183;-75
2022/07/25 04:56:13;;;;;;;9.80;8.97;;;;;;;;;;5014946;28;20219;-75
2022/07/25 04:58:39;;;;;;;9.40;8.60;;;;;;;;;;5004754;28;20190;-75
2022/07/25 05:01:04;;;;;;;9.83;8.90;;;;;;;;;;5006544;28;20196;-75
2022/07/25 05:03:29;;;;;;;10.20;9.20;;;;;;;;;;5002164;28;20175;-76
2022/07/25 05:05:54;;;;;;;10.50;9.47;;;;;;;;;;5009235;28;20192;-76
2022/07/25 05:08:19;;;;;;;10.27;9.48;;;;;;;;;;5024290;28;20241;-75
2022/07/25 05:10:45;;;;;;;10.95;9.45;;;;;;;;;;5004813;28;20235;-75
2022/07/25 05:13:10;;;;;;;9.95;8.98;;;;;;;;;;5006199;28;20276;-75
2022/07/25 05:15:35;;;;;;;9.60;8.80;;;;;;;;;;5010881;28;20186;-75
2022/07/25 05:18:00;;;;;;;10.00;8.93;;;;;;;;;;5004277;28;20215;-75
2022/07/25 05:20:26;;;;;;;9.03;8.30;;;;;;;;;;5009397;28;20186;-75
2022/07/25 05:22:52;;;;;;;9.98;9.20;;;;;;;;;;5009346;28;20234;-76
2022/07/25 05:25:17;;;;;;;9.27;8.50;;;;;;;;;;5016768;28;20189;-75
2022/07/25 05:27:42;;;;;;;9.18;8.38;;;;;;;;;;5011489;28;20205;-75
2022/07/25 05:30:08;;;;;;;9.48;8.18;;;;;;;;;;5008263;28;20193;-76
2022/07/25 05:32:34;;;;;;;9.90;9.03;;;;;;;;;;5008491;28;20237;-75
2022/07/25 05:34:59;;;;;;;9.38;8.45;;;;;;;;;;5007791;28;20231;-75
2022/07/25 05:37:24;;;;;;;10.27;9.37;;;;;;;;;;5015863;28;20310;-75
2022/07/25 05:39:50;;;;;;;9.55;8.68;;;;;;;;;;5007945;28;20183;-75
2022/07/25 05:42:15;;;;;;;9.67;8.77;;;;;;;;;;5005966;28;20183;-76
2022/07/25 05:44:40;;;;;;;10.13;9.32;;;;;;;;;;5013399;28;20216;-76
2022/07/25 05:47:09;;;;;;;9.05;8.13;;;;;;;;;;5015919;28;20192;-75
2022/07/25 05:49:35;;;;;;;11.52;9.38;;;;;;;;;;5009246;28;20184;-76
2022/07/25 05:52:01;;;;;;;9.98;9.18;;;;;;;;;;5006407;28;20191;-76
2022/07/25 05:54:26;;;;;;;10.15;9.30;;;;;;;;;;5009226;28;20188;-75
2022/07/25 05:56:51;;;;;;;9.80;8.98;;;;;;;;;;5008696;28;20215;-75
2022/07/25 05:59:17;;;;;;;9.68;8.82;;;;;;;;;;5004357;28;20172;-76
2022/07/25 06:01:42;;;;;;;10.07;9.07;;;;;;;;;;5007895;28;20172;-76
2022/07/25 06:04:08;;;;;;;9.80;8.95;;;;;;;;;;5011367;28;20171;-75
2022/07/25 06:06:33;;;;;;;9.05;8.30;;;;;;;;;;5003590;28;20287;-75
2022/07/25 06:08:58;;;;;;;10.10;9.23;;;;;;;;;;5003449;28;20231;-75
2022/07/25 06:11:26;;;;;;;8.80;8.00;;;;;;;;;;5013288;28;20178;-76
2022/07/25 06:13:52;;;;;;;9.00;8.20;;;;;;;;;;5009559;28;20234;-75
2022/07/25 06:16:17;;;;;;;9.65;8.90;;;;;;;;;;5011960;28;20235;-76
2022/07/25 06:18:42;;;;;;;9.07;7.97;;;;;;;;;;5009485;28;20186;-75
2022/07/25 06:21:08;;;;;;;9.13;8.43;;;;;;;;;;5004661;28;20172;-76
2022/07/25 06:23:33;;;;;;;9.77;8.98;;;;;;;;;;5009925;28;20183;-76
2022/07/25 06:25:58;;;;;;;9.63;8.82;;;;;;;;;;5006772;28;20282;-75
2022/07/25 06:28:23;;;;;;;9.40;8.60;;;;;;;;;;5011354;28;20274;-76
2022/07/25 06:30:49;;;;;;;9.63;8.73;;;;;;;;;;5012679;28;20191;-76
2022/07/25 06:33:14;;;;;;;9.35;8.55;;;;;;;;;;5012765;28;20245;-76
2022/07/25 06:35:39;;;;;;;10.00;9.10;;;;;;;;;;5007790;28;20183;-76
2022/07/25 06:38:04;;;;;;;8.98;8.25;;;;;;;;;;5008370;28;20176;-76
2022/07/25 06:40:30;;;;;;;8.65;8.02;;;;;;;;;;5005682;28;20176;-76
2022/07/25 06:42:55;;;;;;;9.10;8.30;;;;;;;;;;5005807;28;20176;-77
2022/07/25 06:45:20;;;;;;;9.70;8.80;;;;;;;;;;5010720;28;20176;-76
2022/07/25 06:47:46;;;;;;;8.38;7.70;;;;;;;;;;5012430;28;20180;-76
2022/07/25 06:50:12;;;;;;;8.13;7.47;;;;;;;;;;5016487;28;20259;-75
2022/07/25 06:52:38;;;;;;;9.90;7.38;;;;;;;;;;5011487;28;20183;-76
2022/07/25 06:55:04;;;;;;;8.65;7.95;;;;;;;;;;5011498;28;20188;-76
2022/07/25 06:57:29;;;;;;;8.82;8.02;;;;;;;;;;5007009;28;20211;-76
2022/07/25 06:59:54;;;;;;;8.82;8.13;;;;;;;;;;5013843;28;20191;-77
2022/07/25 07:02:19;;;;;;;9.65;8.52;;;;;;;;;;5004944;28;20179;-76
2022/07/25 07:04:45;;;;;;;9.00;8.20;;;;;;;;;;5011464;28;20184;-76
2022/07/25 07:07:10;;;;;;;8.93;8.18;;;;;;;;;;5011116;28;20179;-76
2022/07/25 07:09:35;;;;;;;8.60;7.90;;;;;;;;;;5010811;28;20231;-76
2022/07/25 07:12:00;;;;;;;8.27;7.47;;;;;;;;;;5010882;28;20191;-76
2022/07/25 07:14:26;;;;;;;8.63;7.93;;;;;;;;;;5013862;28;20266;-76
2022/07/25 07:16:51;;;;;;;9.18;8.48;;;;;;;;;;5008772;28;20211;-75
2022/07/25 07:19:16;;;;;;;8.18;7.50;;;;;;;;;;5012273;28;20167;-77
2022/07/25 07:21:41;;;;;;;8.38;7.68;;;;;;;;;;5010035;28;20258;-76
2022/07/25 07:24:07;;;;;;;9.15;8.35;;;;;;;;;;5004392;28;20249;-76
2022/07/25 07:26:32;;;;;;;8.43;7.80;;;;;;;;;;5015429;28;20255;-76
2022/07/25 07:28:59;;;;;;;8.25;7.60;;;;;;;;;;5012552;28;20383;-75
2022/07/25 07:31:24;;;;;;;8.23;7.50;;;;;;;;;;5010450;28;20182;-76
2022/07/25 07:33:49;;;;;;;8.23;7.50;;;;;;;;;;5011901;28;20267;-76
2022/07/25 07:36:15;;;;;;;8.60;7.72;;;;;;;;;;5010155;28;20211;-77
2022/07/25 07:38:40;;;;;;;8.15;7.35;;;;;;;;;;5011112;28;20271;-76
2022/07/25 07:41:06;;;;;;;8.23;7.53;;;;;;;;;;5012985;28;20187;-77
2022/07/25 07:43:31;;;;;;;8.70;7.90;;;;;;;;;;5020343;28;20200;-76
2022/07/25 07:46:00;;;;;;;7.88;7.18;;;;;;;;;;5011302;28;20198;-76
2022/07/25 07:48:29;;;;;;;8.23;7.53;;;;;;;;;;5004101;28;20183;-77
2022/07/25 07:50:54;;;;;;;8.38;7.68;;;;;;;;;;5003345;28;20192;-76
2022/07/25 07:53:19;;;;;;;7.90;7.30;;;;;;;;;;5008559;28;20206;-77
2022/07/25 07:55:45;;;;;;;8.13;7.40;;;;;;;;;;5008643;28;20203;-76
2022/07/25 07:58:11;;;;;;;7.60;7.00;;;;;;;;;;5004907;28;22661;-76
2022/07/25 08:00:38;;;;;;;7.18;6.57;;;;;;;;;;5008142;28;20261;-76
2022/07/25 08:03:05;;;;;;;7.47;6.75;;;;;;;;;;5006432;28;20184;-76
2022/07/25 08:05:40;;;;;;;7.53;6.93;;;;;;;;;;5013445;28;20214;-76
2022/07/25 08:08:07;;;;;;;7.97;7.28;;;;;;;;;;5007619;28;20195;-77
2022/07/25 08:10:35;;;;;;;7.10;6.50;;;;;;;;;;5006807;28;20223;-76
2022/07/25 08:13:01;;;;;;;7.70;7.10;;;;;;;;;;5007890;28;20255;-76
2022/07/25 08:15:26;;;;;;;7.80;7.10;;;;;;;;;;5007756;28;20214;-77
2022/07/25 08:17:51;;;;;;;7.75;6.97;;;;;;;;;;5011992;28;20203;-76
2022/07/25 08:20:18;;;;;;;7.13;6.63;;;;;;;;;;5010297;28;20180;-76
2022/07/25 08:22:44;;;;;;;8.75;7.10;;;;;;;;;;5008927;28;20179;-76
2022/07/25 08:25:12;;;;;;;6.82;6.28;;;;;;;;;;5003032;28;20454;-76
2022/07/25 08:27:38;;;;;;;7.55;6.85;;;;;;;;;;5004484;28;20195;-76
2022/07/25 08:30:04;;;;;;;7.10;6.50;;;;;;;;;;5004761;28;20184;-77
2022/07/25 08:32:29;;;;;;;6.78;6.18;;;;;;;;;;5011283;28;20229;-76
2022/07/25 08:34:55;;;;;;;6.50;6.00;;;;;;;;;;5016576;28;20183;-77
2022/07/25 08:37:20;;;;;;;6.30;5.90;;;;;;;;;;5008304;28;20239;-76
2022/07/25 08:39:45;;;;;;;6.28;5.78;;;;;;;;;;5009330;28;20214;-76
2022/07/25 08:42:11;;;;;;;6.80;6.30;;;;;;;;;;5011410;28;20175;-77
2022/07/25 08:44:39;;;;;;;6.63;6.13;;;;;;;;;;4998591;28;20180;-77
2022/07/25 08:47:04;;;;;;;6.95;6.22;;;;;;;;;;5007408;28;20241;-76
2022/07/25 08:49:30;;;;;;;7.18;6.57;;;;;;;;;;5009733;28;20270;-77
2022/07/25 08:51:55;;;;;;;6.85;6.28;;;;;;;;;;5005270;28;20195;-76
2022/07/25 08:54:22;;;;;;;6.50;5.97;;;;;;;;;;5001725;28;20180;-76
2022/07/25 08:56:47;;;;;;;6.68;5.03;;;;;;;;;;5007257;28;20302;-76
2022/07/25 08:59:12;;;;;;;6.90;6.35;;;;;;;;;;5004585;28;20286;-77
2022/07/25 09:01:38;;;;;;;6.07;5.57;;;;;;;;;;5002807;28;20256;-76
2022/07/25 09:04:03;;;;;;;7.00;6.45;;;;;;;;;;5011197;28;20207;-77
2022/07/25 09:06:29;;;;;;;5.75;5.35;;;;;;;;;;5004346;28;20274;-77
2022/07/25 09:08:55;;;;;;;5.70;5.20;;;;;;;;;;5012338;28;20176;-76
2022/07/25 09:11:53;;;;;;;6.43;5.90;;;;;;;;;;5009093;28;20189;-76
2022/07/25 09:14:18;;;;;;;6.07;5.53;;;;;;;;;;5009068;28;20179;-77
2022/07/25 09:16:44;;;;;;;5.43;5.03;;;;;;;;;;5012570;28;20210;-76
2022/07/25 09:19:14;;;;;;;6.00;5.55;;;;;;;;;;5010032;28;20175;-77
2022/07/25 09:21:41;;;;;;;5.95;5.55;;;;;;;;;;5005613;28;20176;-77
2022/07/25 09:24:10;;;;;;;5.68;5.20;;;;;;;;;;5009960;28;20186;-77
2022/07/25 09:26:43;;;;;;;6.45;5.88;;;;;;;;;;5013392;28;20205;-77
2022/07/25 09:29:14;;;;;;;7.55;6.85;;;;;;;;;;5006866;28;20179;-76
2022/07/25 09:31:41;;;;;;;7.05;6.50;;;;;;;;;;5001386;28;20262;-76
2022/07/25 09:34:08;;;;;;;5.80;5.35;;;;;;;;;;4998139;28;20188;-77
2022/07/25 09:36:34;;;;;;;6.80;6.20;;;;;;;;;;5008849;28;20463;-77
2022/07/25 09:39:00;;;;;;;6.18;5.55;;;;;;;;;;5013368;28;20172;-77
2022/07/25 09:41:35;;;;;;;5.68;5.22;;;;;;;;;;5006869;28;20190;-76
2022/07/25 09:44:01;;;;;;;6.50;5.95;;;;;;;;;;5006517;28;20171;-77
2022/07/25 09:46:30;;;;;;;6.53;5.93;;;;;;;;;;5011983;28;20185;-77
2022/07/25 09:48:57;;;;;;;7.43;5.78;;;;;;;;;;5017724;28;20186;-76
2022/07/25 09:51:22;;;;;;;6.43;5.93;;;;;;;;;;5012787;28;20210;-78
2022/07/25 09:53:48;;;;;;;6.10;5.70;;;;;;;;;;5017124;28;20180;-77
2022/07/25 09:56:13;;;;;;;6.47;5.95;;;;;;;;;;5011566;28;20243;-77
2022/07/25 09:58:38;;;;;;;6.07;5.63;;;;;;;;;;5007770;28;20180;-78
2022/07/25 10:01:04;;;;;;;6.80;6.07;;;;;;;;;;5010961;28;20405;-77
2022/07/25 10:03:48;;;;;;;6.50;5.90;;;;;;;;;;5014146;28;20202;-77
2022/07/25 10:06:14;;;;;;;6.30;5.80;;;;;;;;;;5012262;28;20215;-77
2022/07/25 10:08:40;;;;;;;6.17;5.67;;;;;;;;;;5017907;28;20256;-77
2022/07/25 10:11:16;;;;;;;7.28;6.68;;;;;;;;;;5016436;28;20468;-77
2022/07/25 10:13:41;;;;;;;6.15;5.57;;;;;;;;;;5006976;28;20179;-77
2022/07/25 10:16:13;;;;;;;6.77;6.27;;;;;;;;;;5012933;28;20211;-77
2022/07/25 10:18:46;;;;;;;6.43;5.93;;;;;;;;;;5007681;28;20458;-78
2022/07/25 10:21:11;;;;;;;5.65;5.15;;;;;;;;;;5017719;28;20218;-77
2022/07/25 10:23:37;;;;;;;5.90;5.50;;;;;;;;;;5014928;28;20250;-77
2022/07/25 10:26:02;;;;;;;6.22;5.72;;;;;;;;;;5016963;28;20180;-77
2022/07/25 10:28:34;;;;;;;6.78;6.10;;;;;;;;;;5011173;28;20182;-77
2022/07/25 10:31:00;;;;;;;6.97;5.88;;;;;;;;;;5006939;28;20180;-77
2022/07/25 10:33:25;;;;;;;6.57;6.07;;;;;;;;;;5009912;28;20183;-78
2022/07/25 10:35:50;;;;;;;6.65;6.10;;;;;;;;;;5007498;28;20175;-77
2022/07/25 10:38:22;;;;;;;6.10;5.63;;;;;;;;;;5012043;28;20214;-77
2022/07/25 10:40:47;;;;;;;6.68;5.97;;;;;;;;;;5006855;28;20428;-77
2022/07/25 10:43:16;;;;;;;6.60;5.93;;;;;;;;;;5004977;28;20184;-75
2022/07/25 10:45:47;;;;;;;5.93;5.53;;;;;;;;;;5003188;28;20184;-78
2022/07/25 10:48:20;;;;;;;6.40;5.90;;;;;;;;;;5006233;28;20179;-76
2022/07/25 10:50:46;;;;;;;5.65;5.25;;;;;;;;;;5010689;28;20183;-77
2022/07/25 10:53:11;;;;;;;5.68;5.28;;;;;;;;;;5015511;28;20243;-77
2022/07/25 10:55:36;;;;;;;6.25;5.75;;;;;;;;;;5009720;28;20327;-77
2022/07/25 10:58:05;;;;;;;6.20;5.80;;;;;;;;;;5008722;28;20199;-78
2022/07/25 11:00:30;;;;;;;6.00;5.60;;;;;;;;;;5014615;28;20540;-78
2022/07/25 11:02:56;;;;;;;6.05;5.47;;;;;;;;;;5004067;28;20180;-78
2022/07/25 11:05:21;;;;;;;6.28;5.88;;;;;;;;;;5008283;28;20274;-76
2022/07/25 11:07:52;;;;;;;6.28;5.78;;;;;;;;;;5010807;28;20179;-77
2022/07/25 11:10:24;;;;;;;6.30;5.80;;;;;;;;;;5008300;28;20223;-77
2022/07/25 11:12:51;;;;;;;6.15;5.65;;;;;;;;;;5008467;28;20182;-77
2022/07/25 11:15:20;;;;;;;6.03;5.47;;;;;;;;;;5008293;28;20188;-76
2022/07/25 11:17:52;;;;;;;6.68;6.15;;;;;;;;;;5014665;28;20209;-76
2022/07/25 11:20:20;;;;;;;6.53;6.13;;;;;;;;;;5024311;28;20183;-77
2022/07/25 11:22:52;;;;;;;6.55;6.15;;;;;;;;;;5007439;28;20183;-77
2022/07/25 11:25:19;;;;;;;6.75;6.25;;;;;;;;;;5013118;28;20178;-77
2022/07/25 11:27:48;;;;;;;6.72;6.13;;;;;;;;;;5011365;28;20231;-77
2022/07/25 11:30:17;;;;;;;6.57;6.03;;;;;;;;;;5009581;28;20175;-77
2022/07/25 11:32:44;;;;;;;7.13;6.57;;;;;;;;;;5013962;28;20174;-78
2022/07/25 11:35:10;;;;;;;7.28;6.68;;;;;;;;;;5017742;28;20207;-77
2022/07/25 11:37:37;;;;;;;6.82;6.18;;;;;;;;;;5013742;28;20203;-77
2022/07/25 11:40:03;;;;;;;6.28;5.78;;;;;;;;;;5008989;28;20275;-78
2022/07/25 11:42:37;;;;;;;6.93;6.32;;;;;;;;;;5013986;28;20167;-77
2022/07/25 11:45:02;;;;;;;6.95;6.45;;;;;;;;;;5009036;28;20195;-77
2022/07/25 11:47:29;;;;;;;6.55;5.95;;;;;;;;;;5012436;28;20192;-77
2022/07/25 11:49:56;;;;;;;6.78;6.28;;;;;;;;;;5008433;28;20208;-77
2022/07/25 11:52:28;;;;;;;7.38;6.80;;;;;;;;;;5018267;28;20207;-78
2022/07/25 11:54:55;;;;;;;7.38;6.75;;;;;;;;;;5014536;28;20180;-75
2022/07/25 11:57:25;;;;;;;7.05;6.55;;;;;;;;;;5012101;28;20207;-78
2022/07/25 11:59:51;;;;;;;7.30;6.80;;;;;;;;;;5018961;28;20295;-77
2022/07/25 12:02:29;;;;;;;7.15;6.65;;;;;;;;;;5005356;28;20184;-77
2022/07/25 12:04:59;;;;;;;7.25;6.57;;;;;;;;;;5008331;28;20250;-77
2022/07/25 12:07:45;;;;;;;7.28;6.68;;;;;;;;;;5000458;28;20184;-77
2022/07/25 12:10:11;;;;;;;7.63;6.95;;;;;;;;;;5011077;28;20219;-77
2022/07/25 12:12:40;;;;;;;7.70;6.97;;;;;;;;;;5006964;28;20217;-77
2022/07/25 12:15:05;;;;;;;7.30;6.80;;;;;;;;;;5009999;28;20203;-77
2022/07/25 12:17:30;;;;;;;7.72;7.13;;;;;;;;;;5006512;28;20238;-78
2022/07/25 12:19:55;;;;;;;7.10;6.60;;;;;;;;;;5004982;28;20175;-78
2022/07/25 12:22:21;;;;;;;7.23;6.73;;;;;;;;;;5009240;28;20243;-77
2022/07/25 12:24:46;;;;;;;8.03;7.43;;;;;;;;;;5008860;28;20467;-77
2022/07/25 12:27:11;;;;;;;8.30;7.35;;;;;;;;;;5007794;28;20421;-76
2022/07/25 12:29:39;;;;;;;8.20;7.10;;;;;;;;;;5007616;28;20191;-77
2022/07/25 12:32:04;;;;;;;7.60;6.90;;;;;;;;;;5009429;28;20428;-78
2022/07/25 12:34:30;;;;;;;7.65;7.05;;;;;;;;;;5007955;28;20187;-77
2022/07/25 12:36:55;;;;;;;7.20;6.68;;;;;;;;;;5008236;28;20199;-79
2022/07/25 12:39:20;;;;;;;8.15;7.47;;;;;;;;;;5011827;28;20195;-77
2022/07/25 12:41:45;;;;;;;7.90;6.53;;;;;;;;;;5009038;28;20210;-78
2022/07/25 12:44:11;;;;;;;7.30;6.60;;;;;;;;;;5016080;28;20195;-78
2022/07/25 12:46:37;;;;;;;7.50;6.90;;;;;;;;;;5009860;28;20262;-78
2022/07/25 12:49:05;;;;;;;7.95;7.25;;;;;;;;;;5011555;28;20175;-78
2022/07/25 12:51:30;;;;;;;7.68;6.97;;;;;;;;;;5009458;28;20176;-78
2022/07/25 12:53:55;;;;;;;8.13;7.53;;;;;;;;;;5010210;28;20192;-78
2022/07/25 12:56:21;;;;;;;7.75;7.25;;;;;;;;;;5005369;28;20277;-78
2022/07/25 12:58:46;;;;;;;8.07;7.47;;;;;;;;;;5010404;28;20175;-77
2022/07/25 13:01:13;;;;;;;7.68;7.07;;;;;;;;;;5012949;28;20184;-78
2022/07/25 13:03:38;;;;;;;7.93;7.30;;;;;;;;;;5009837;28;20262;-78
2022/07/25 13:06:04;;;;;;;7.80;7.10;;;;;;;;;;5011315;28;20230;-78
2022/07/25 13:08:29;;;;;;;7.63;6.93;;;;;;;;;;5014437;28;20399;-78
2022/07/25 13:10:54;;;;;;;7.65;7.05;;;;;;;;;;5007705;28;20219;-78
2022/07/25 13:13:19;;;;;;;7.65;6.95;;;;;;;;;;5012030;28;20206;-77
2022/07/25 13:15:45;;;;;;;7.85;7.25;;;;;;;;;;5008962;28;20171;-77
2022/07/25 13:18:12;;;;;;;8.02;7.28;;;;;;;;;;5008220;28;20303;-78
2022/07/25 13:20:38;;;;;;;7.70;6.95;;;;;;;;;;5009244;28;20214;-78
2022/07/25 13:23:03;;;;;;;7.65;7.03;;;;;;;;;;5010957;28;20199;-78
2022/07/25 13:25:28;;;;;;;8.00;7.30;;;;;;;;;;5013244;28;20183;-77
2022/07/25 13:27:53;;;;;;;8.68;8.07;;;;;;;;;;5007542;28;20180;-78
2022/07/25 13:30:19;;;;;;;8.60;7.85;;;;;;;;;;5008362;28;20190;-78
2022/07/25 13:32:44;;;;;;;8.88;8.13;;;;;;;;;;5010183;28;20191;-78
2022/07/25 13:35:09;;;;;;;9.00;8.15;;;;;;;;;;5006649;28;20183;-77
2022/07/25 13:37:35;;;;;;;8.73;7.90;;;;;;;;;;5012883;28;20233;-78
2022/07/25 13:40:00;;;;;;;8.27;7.60;;;;;;;;;;5009959;28;20180;-77
2022/07/25 13:42:25;;;;;;;8.88;8.07;;;;;;;;;;5012102;28;20236;-77
2022/07/25 13:44:51;;;;;;;8.50;7.60;;;;;;;;;;5008078;28;20180;-77
2022/07/25 13:47:16;;;;;;;9.25;8.55;;;;;;;;;;5009951;28;20213;-77
2022/07/25 13:49:41;;;;;;;8.95;8.25;;;;;;;;;;5011245;28;20250;-78
2022/07/25 13:52:06;;;;;;;8.70;8.00;;;;;;;;;;5009048;28;20274;-78
2022/07/25 13:54:32;;;;;;;8.80;8.10;;;;;;;;;;5009540;28;20175;-77
2022/07/25 13:56:57;;;;;;;9.00;8.05;;;;;;;;;;5011191;28;20279;-78
2022/07/25 13:59:23;;;;;;;8.13;7.53;;;;;;;;;;5013608;28;20238;-77
2022/07/25 14:01:48;;;;;;;9.00;8.30;;;;;;;;;;5007220;28;20179;-78
2022/07/25 14:04:13;;;;;;;9.05;8.25;;;;;;;;;;5008723;28;20171;-77
2022/07/25 14:06:38;;;;;;;8.65;7.95;;;;;;;;;;5008898;28;20186;-77
2022/07/25 14:09:04;;;;;;;8.70;8.00;;;;;;;;;;5008813;28;20238;-78
2022/07/25 14:11:30;;;;;;;9.25;8.27;;;;;;;;;;5009607;28;20179;-77
2022/07/25 14:13:55;;;;;;;7.60;6.95;;;;;;;;;;5011234;28;20172;-77
2022/07/25 14:16:20;;;;;;;7.57;6.97;;;;;;;;;;5011769;28;20211;-79
2022/07/25 14:18:46;;;;;;;9.02;8.23;;;;;;;;;;5006735;28;20176;-77
2022/07/25 14:21:11;;;;;;;9.80;8.43;;;;;;;;;;5001706;28;20180;-78
2022/07/25 14:23:36;;;;;;;8.68;7.93;;;;;;;;;;5009372;28;20266;-78
2022/07/25 14:26:02;;;;;;;7.95;7.28;;;;;;;;;;5008598;28;20179;-78
2022/07/25 14:28:28;;;;;;;9.10;8.35;;;;;;;;;;5008200;28;20180;-78
2022/07/25 14:30:53;;;;;;;9.52;8.73;;;;;;;;;;5008542;28;20180;-78
2022/07/25 14:33:18;;;;;;;9.43;8.73;;;;;;;;;;5023153;28;20186;-78
2022/07/25 14:35:43;;;;;;;8.50;7.83;;;;;;;;;;5011741;28;20195;-78